Time;durP1;ratioP1;P1;durP2;ratioP2;P2;SDS_P1;SDS_P2;PMS_P1;PMS_P2;Temp;Humidity;BMP_temperature;BMP_pressure;BME280_temperature;BME280_humidity;BME280_pressure;Samples;Min_cycle;Max_cycle;Signal;HPM_P1;HPM_P2
2022/05/18 00:08:08;;;;;;;2.40;1.50;;;;;;;5.61;47.11;100434.95;437263;1273;140416;-51
2022/05/18 00:18:14;;;;;;;1.90;1.30;;;;;;;5.40;47.36;100444.05;431313;1274;140502;-48
2022/05/18 00:28:20;;;;;;;2.20;0.50;;;;;;;5.27;47.09;100452.91;430221;1273;141134;-47
2022/05/18 00:38:26;;;;;;;2.20;0.60;;;;;;;5.16;46.97;100458.45;431166;1274;140733;-48
2022/05/18 00:48:32;;;;;;;0.70;0.70;;;;;;;5.01;47.51;100467.17;434670;1273;145150;-51
2022/05/18 00:58:47;;;;;;;2.40;1.40;;;;;;;4.80;47.93;100480.73;431225;1273;143256;-48
2022/05/18 01:08:59;;;;;;;4.20;0.90;;;;;;;4.68;48.07;100502.70;431905;1273;140062;-55
2022/05/18 01:19:09;;;;;;;4.00;2.10;;;;;;;4.47;48.73;100511.02;431667;1273;140112;-47
2022/05/18 01:29:18;;;;;;;4.20;0.90;;;;;;;4.30;48.96;100521.13;430660;1273;141038;-47
2022/05/18 01:39:30;;;;;;;1.50;1.00;;;;;;;4.19;49.43;100522.92;432134;1273;140033;-45
2022/05/18 01:49:38;;;;;;;1.20;1.00;;;;;;;3.93;50.35;100530.42;430413;1272;178662;-46
2022/05/18 01:59:44;;;;;;;2.00;1.00;;;;;;;3.69;51.12;100529.19;431765;1272;141724;-45
2022/05/18 02:09:50;;;;;;;6.30;1.10;;;;;;;3.47;51.83;100539.49;430778;1273;139336;-54
2022/05/18 02:19:57;;;;;;;3.60;1.00;;;;;;;3.17;52.74;100545.58;429863;1273;141446;-49
2022/05/18 02:30:04;;;;;;;4.70;1.20;;;;;;;2.88;53.70;100549.71;430463;1273;141202;-49
2022/05/18 02:40:13;;;;;;;5.30;1.10;;;;;;;2.94;52.98;100550.48;430669;1273;140810;-50
2022/05/18 02:50:19;;;;;;;4.50;1.50;;;;;;;3.03;52.50;100553.62;430063;1273;140880;-47
2022/05/18 03:00:25;;;;;;;8.00;1.30;;;;;;;3.08;52.53;100560.45;430391;1273;141187;-49
2022/05/18 03:10:31;;;;;;;1.20;0.90;;;;;;;3.21;52.60;100570.08;430395;1273;319990;-50
2022/05/18 03:31:16;;;;;;;4.90;1.30;;;;;;;3.78;52.18;100587.55;429881;1273;140218;-47
2022/05/18 03:41:22;;;;;;;7.30;1.80;;;;;;;3.92;52.27;100598.00;430216;1273;141114;-50
2022/05/18 03:51:29;;;;;;;4.60;1.30;;;;;;;4.01;52.47;100606.85;432002;1273;144601;-53
2022/05/18 04:01:35;;;;;;;4.00;1.60;;;;;;;4.19;52.63;100625.54;429446;1273;161575;-50
2022/05/18 04:11:41;;;;;;;1.70;1.30;;;;;;;6.85;52.80;100635.61;431205;1273;141700;-53
2022/05/18 04:21:47;;;;;;;2.50;1.30;;;;;;;17.19;43.04;100626.90;431164;1273;140674;-47
2022/05/18 04:31:52;;;;;;;6.10;1.50;;;;;;;22.86;33.92;100625.61;430487;1273;141914;-49
2022/05/18 04:41:58;;;;;;;7.10;1.60;;;;;;;25.83;28.41;100628.25;433301;1273;141690;-52
2022/05/18 04:52:07;;;;;;;4.50;1.70;;;;;;;28.51;24.34;100634.48;442650;1273;141082;-50
2022/05/18 05:02:13;;;;;;;0.80;0.70;;;;;;;30.72;21.91;100640.08;432905;1273;141452;-51
2022/05/18 05:12:20;;;;;;;3.20;1.00;;;;;;;34.55;18.81;100643.15;435828;1273;140881;-53
2022/05/18 05:22:26;;;;;;;2.80;1.20;;;;;;;34.85;16.83;100649.29;434378;1272;141458;-51
2022/05/18 05:32:32;;;;;;;4.80;2.00;;;;;;;36.43;15.74;100662.39;430869;1272;142249;-52
2022/05/18 05:42:40;;;;;;;2.00;1.30;;;;;;;39.11;14.38;100672.38;438331;1273;140945;-52
2022/05/18 05:52:46;;;;;;;4.30;1.50;;;;;;;41.04;13.05;100683.38;432481;1273;141371;-53
2022/05/18 06:02:52;;;;;;;3.50;1.80;;;;;;;43.41;11.92;100690.80;438126;1273;141941;-48
2022/05/18 06:12:58;;;;;;;2.90;1.70;;;;;;;45.63;10.47;100702.08;434354;1274;140783;-52
2022/05/18 06:23:07;;;;;;;5.50;2.00;;;;;;;47.05;9.72;100701.48;438782;1273;141017;-53
2022/05/18 06:33:13;;;;;;;3.10;1.70;;;;;;;48.59;8.77;100704.08;436926;1273;141227;-57
2022/05/18 06:43:19;;;;;;;2.10;1.50;;;;;;;47.77;8.11;100712.92;431414;1273;140467;-57
2022/05/18 06:53:25;;;;;;;3.70;2.00;;;;;;;47.79;7.91;100721.81;436753;1273;141773;-52
2022/05/18 07:03:32;;;;;;;2.90;2.70;;;;;;;50.13;7.16;100741.11;430871;1274;141426;-55
2022/05/18 07:13:38;;;;;;;6.60;6.10;;;;;;;51.95;6.73;100745.64;436050;1273;140954;-49
2022/05/18 07:23:44;;;;;;;7.90;7.20;;;;;;;52.96;6.15;100739.85;433954;1273;141373;-51
2022/05/18 07:33:50;;;;;;;9.80;8.90;;;;;;;53.23;5.75;100748.99;433151;1274;141385;-52
2022/05/18 07:43:56;;;;;;;10.40;9.80;;;;;;;53.00;5.58;100750.33;431467;1273;140622;-52
2022/05/18 07:54:01;;;;;;;5.40;2.50;;;;;;;51.92;5.60;100749.50;432341;1273;141947;-51
2022/05/18 08:04:08;;;;;;;4.10;1.90;;;;;;;44.82;6.53;100746.73;433198;1273;144640;-51
2022/05/18 08:24:37;;;;;;;2.30;0.90;;;;;;;26.75;12.00;100761.80;433955;1273;146724;-48
2022/05/18 08:34:43;;;;;;;4.30;0.90;;;;;;;24.26;13.48;100765.21;430678;1273;143085;-47
2022/05/18 08:44:50;;;;;;;3.40;0.60;;;;;;;21.75;14.80;100769.37;432036;1273;142676;-48
2022/05/18 08:55:11;;;;;;;3.50;0.70;;;;;;;20.18;16.07;100778.21;436980;1273;140708;-56
2022/05/18 09:05:26;;;;;;;2.70;0.80;;;;;;;19.42;17.09;100773.48;432104;1273;140650;-51
2022/05/18 09:15:42;;;;;;;3.60;1.00;;;;;;;18.84;18.29;100767.31;433447;1273;145711;-53
2022/05/18 09:26:03;;;;;;;4.30;1.00;;;;;;;18.52;19.45;100763.48;432290;1273;141564;-55
2022/05/18 09:36:22;;;;;;;4.20;0.80;;;;;;;18.09;19.97;100760.95;433125;1272;140758;-53
2022/05/18 09:46:31;;;;;;;7.30;1.50;;;;;;;18.24;20.47;100750.42;433545;1273;140391;-51
2022/05/18 09:56:46;;;;;;;7.70;0.90;;;;;;;18.56;20.61;100744.20;434605;1273;141789;-47
2022/05/18 10:17:16;;;;;;;5.60;1.20;;;;;;;17.76;21.03;100737.36;434684;1273;141128;-56
2022/05/18 10:27:27;;;;;;;3.80;0.70;;;;;;;17.60;21.15;100737.30;432992;1274;145596;-52
2022/05/18 10:37:36;;;;;;;2.20;1.80;;;;;;;17.21;21.27;100733.10;434596;1274;142142;-52
2022/05/18 10:47:50;;;;;;;2.70;0.80;;;;;;;16.89;21.64;100730.10;432922;1273;195030;-51
2022/05/18 10:58:01;;;;;;;5.20;0.50;;;;;;;16.96;21.47;100725.73;431997;1273;142180;-53
2022/05/18 11:08:13;;;;;;;4.80;0.60;;;;;;;17.10;21.25;100716.38;430816;1273;141875;-51
2022/05/18 11:18:28;;;;;;;4.10;0.90;;;;;;;17.06;20.88;100717.05;430934;1273;142091;-58
2022/05/18 11:28:45;;;;;;;2.60;1.00;;;;;;;17.13;20.64;100714.10;433457;1273;144048;-53
2022/05/18 11:39:16;;;;;;;2.90;1.00;;;;;;;17.08;21.01;100707.73;434924;1274;140968;-63
2022/05/18 11:49:25;;;;;;;6.80;1.40;;;;;;;17.29;21.41;100695.01;432590;1273;142035;-66
2022/05/18 12:00:00;;;;;;;1.70;0.60;;;;;;;17.58;21.71;100687.19;433967;1271;142000;-64
2022/05/18 12:10:15;;;;;;;1.10;0.40;;;;;;;17.70;21.56;100687.86;430857;1273;141116;-56
2022/05/18 12:20:27;;;;;;;3.30;1.40;;;;;;;17.62;21.64;100677.34;431895;1272;141341;-68
2022/05/18 12:30:38;;;;;;;7.50;0.80;;;;;;;17.53;21.88;100672.33;432894;1273;140816;-68
2022/05/18 12:40:56;;;;;;;1.00;0.50;;;;;;;17.47;21.39;100672.27;434230;1273;141828;-66
2022/05/18 12:51:05;;;;;;;;;;;;;;;17.47;21.41;100663.60;433610;1273;142071;-63
2022/05/18 13:01:20;;;;;;;2.80;1.10;;;;;;;17.51;20.86;100658.01;433154;1273;131047;-57
2022/05/18 13:11:35;;;;;;;5.70;1.30;;;;;;;17.47;20.79;100645.20;430222;1273;141021;-65
2022/05/18 13:22:14;;;;;;;1.20;0.40;;;;;;;17.43;20.47;100635.95;440986;1271;141425;-62
2022/05/18 13:32:20;;;;;;;0.70;0.50;;;;;;;17.46;19.86;100630.60;430109;1272;140423;-65
2022/05/18 13:42:29;;;;;;;3.00;1.00;;;;;;;17.57;19.61;100620.17;432772;1273;140867;-57
2022/05/18 13:52:35;;;;;;;;;;;;;;;17.57;19.15;100613.25;432073;1273;164232;-64
2022/05/18 14:02:42;;;;;;;4.30;0.40;;;;;;;17.59;19.00;100607.66;434684;1273;127875;-56
2022/05/18 14:12:55;;;;;;;4.20;0.60;;;;;;;17.59;18.88;100593.66;432566;1273;140514;-56
2022/05/18 14:23:05;;;;;;;3.30;0.90;;;;;;;17.62;18.52;100589.13;430163;1273;141537;-48
2022/05/18 14:33:21;;;;;;;0.70;0.40;;;;;;;17.66;18.67;100580.17;431555;1272;141230;-49
2022/05/18 14:43:30;;;;;;;1.70;0.80;;;;;;;17.68;18.30;100574.68;435799;1272;141079;-50
2022/05/18 14:53:46;;;;;;;9.30;1.50;;;;;;;17.64;18.41;100579.11;436901;1273;143562;-50
2022/05/18 15:03:54;;;;;;;5.00;0.50;;;;;;;17.75;18.21;100579.16;436855;1273;272834;-51
2022/05/18 15:14:17;;;;;;;2.10;0.40;;;;;;;17.82;18.65;100580.52;435446;1273;141108;-49
2022/05/18 15:24:30;;;;;;;2.20;0.30;;;;;;;17.77;19.01;100574.20;434945;1273;141888;-51
2022/05/18 15:34:40;;;;;;;0.30;0.30;;;;;;;17.68;19.16;100565.17;431526;1274;162965;-53
2022/05/18 15:44:46;;;;;;;7.40;0.70;;;;;;;17.82;19.57;100558.05;430354;1274;142428;-48
2022/05/18 15:54:56;;;;;;;1.70;0.40;;;;;;;17.95;19.64;100560.35;430984;1274;141709;-52
2022/05/18 16:05:03;;;;;;;0.70;0.30;;;;;;;17.91;19.63;100563.16;431213;1273;141667;-52
2022/05/18 16:15:12;;;;;;;2.00;0.50;;;;;;;17.82;19.28;100562.68;433898;1273;141642;-52
2022/05/18 16:25:22;;;;;;;;;;;;;;;17.73;19.18;100559.14;446876;1272;142182;-50
2022/05/18 16:35:28;;;;;;;4.80;0.80;;;;;;;17.62;19.16;100549.33;432082;1273;130026;-48
2022/05/18 16:45:34;;;;;;;2.10;0.80;;;;;;;17.53;19.17;100553.95;431673;1273;141332;-49
2022/05/18 16:55:40;;;;;;;1.30;0.20;;;;;;;17.35;19.41;100550.88;429713;1272;140846;-48
2022/05/18 17:05:58;;;;;;;2.00;0.70;;;;;;;17.58;19.36;100547.14;430198;1273;140660;-47
2022/05/18 17:16:05;;;;;;;0.60;0.60;;;;;;;18.77;18.43;100551.17;429739;1273;141759;-51
2022/05/18 17:26:13;;;;;;;3.10;0.50;;;;;;;17.87;18.91;100554.25;428724;1273;141503;-54
2022/05/18 17:36:19;;;;;;;0.40;0.30;;;;;;;17.37;19.80;100556.03;432136;1273;140815;-53
2022/05/18 17:46:26;;;;;;;6.10;1.60;;;;;;;16.76;20.38;100551.21;430614;1273;145441;-49
2022/05/18 17:56:52;;;;;;;5.10;0.90;;;;;;;16.19;22.28;100552.57;430557;1273;140627;-51
2022/05/18 18:06:59;;;;;;;3.40;0.90;;;;;;;15.70;23.41;100553.83;434757;1273;143792;-50
2022/05/18 18:17:05;;;;;;;5.70;1.00;;;;;;;15.18;23.53;100557.91;430907;1273;141973;-53
2022/05/18 18:27:11;;;;;;;7.40;1.30;;;;;;;14.61;25.44;100568.87;431654;1273;146342;-49
2022/05/18 18:37:17;;;;;;;8.60;3.20;;;;;;;14.06;26.78;100574.27;429839;1272;142166;-50
2022/05/18 18:47:23;;;;;;;20.00;6.40;;;;;;;13.46;29.77;100586.89;431529;1273;141328;-53
2022/05/18 18:57:34;;;;;;;14.80;3.00;;;;;;;12.84;31.61;100599.48;432101;1273;141247;-52
2022/05/18 19:07:43;;;;;;;9.00;2.60;;;;;;;12.26;33.41;100605.48;429540;1272;145348;-54
2022/05/18 19:17:49;;;;;;;13.30;3.50;;;;;;;11.70;34.60;100605.96;441368;1273;141447;-52
2022/05/18 19:27:57;;;;;;;15.00;3.90;;;;;;;11.24;36.20;100603.95;429583;1273;142016;-50
2022/05/18 19:38:03;;;;;;;17.20;5.90;;;;;;;10.78;37.39;100606.88;429735;1273;145284;-52
2022/05/18 19:48:11;;;;;;;10.20;5.10;;;;;;;10.32;39.00;100611.46;439209;1272;141028;-49
2022/05/18 19:58:24;;;;;;;13.30;5.30;;;;;;;9.91;40.04;100614.33;433183;1273;141582;-48
2022/05/18 20:08:30;;;;;;;14.70;5.70;;;;;;;9.52;40.68;100610.83;430759;1272;143023;-53
2022/05/18 20:18:36;;;;;;;17.20;6.80;;;;;;;9.14;42.04;100608.05;430506;1273;141499;-53
2022/05/18 20:28:50;;;;;;;30.10;11.80;;;;;;;8.81;42.86;100608.86;430369;1273;140298;-52
2022/05/18 20:38:56;;;;;;;32.50;12.10;;;;;;;8.45;43.91;100608.32;430788;1273;140769;-50
2022/05/18 20:49:03;;;;;;;26.40;12.60;;;;;;;8.09;45.06;100611.24;430422;1273;140892;-52
2022/05/18 20:59:11;;;;;;;31.20;12.40;;;;;;;7.81;45.94;100610.33;446243;1273;141857;-54
2022/05/18 21:09:18;;;;;;;40.40;19.70;;;;;;;7.58;46.97;100604.52;439667;1273;141579;-50
2022/05/18 21:19:25;;;;;;;44.80;18.70;;;;;;;7.37;47.76;100600.39;430773;1273;141432;-51
2022/05/18 21:29:31;;;;;;;46.90;20.60;;;;;;;7.14;48.63;100600.62;429580;1272;141692;-51
2022/05/18 21:39:37;;;;;;;43.00;17.60;;;;;;;6.90;49.27;100601.05;430723;1273;141818;-52
2022/05/18 21:49:43;;;;;;;43.90;17.90;;;;;;;6.67;49.68;100599.17;430632;1273;142336;-50
2022/05/18 21:59:52;;;;;;;39.80;14.20;;;;;;;6.49;50.42;100600.08;430248;1272;141371;-56
2022/05/18 22:09:58;;;;;;;28.80;13.00;;;;;;;6.27;51.24;100602.14;431566;1272;142309;-54
2022/05/18 22:20:04;;;;;;;22.80;10.80;;;;;;;6.04;51.54;100600.71;430014;1273;146326;-51
2022/05/18 22:30:13;;;;;;;30.30;12.40;;;;;;;5.82;52.07;100598.33;431085;1273;141241;-47
2022/05/18 22:40:22;;;;;;;21.80;10.20;;;;;;;5.61;53.12;100596.49;434461;1272;142904;-51
2022/05/18 22:50:35;;;;;;;25.00;10.50;;;;;;;5.46;53.57;100597.56;430071;1272;147203;-50
2022/05/18 23:00:42;;;;;;;24.50;9.10;;;;;;;5.29;54.04;100591.77;429932;1273;140891;-50
2022/05/18 23:10:48;;;;;;;19.50;9.10;;;;;;;5.10;54.45;100593.81;430783;1273;141720;-48
2022/05/18 23:20:57;;;;;;;18.80;8.10;;;;;;;4.88;55.12;100586.56;431028;1273;141035;-50
2022/05/18 23:31:04;;;;;;;14.70;7.50;;;;;;;4.71;55.47;100578.09;430814;1272;142944;-51
2022/05/18 23:41:12;;;;;;;15.30;7.00;;;;;;;4.53;56.00;100577.11;430403;1273;140969;-49
2022/05/18 23:51:33;;;;;;;18.70;8.50;;;;;;;4.38;56.60;100579.02;430303;1273;141440;-47
